createdAt,value
2022-09-12T00:01:09.369Z,97903.56
2022-09-12T00:03:36.768Z,97898.53
2022-09-12T00:06:09.705Z,97892.31
2022-09-12T00:08:38.538Z,97894.63
2022-09-12T00:11:08.105Z,97888.41
2022-09-12T00:13:39.529Z,97889.97
2022-09-12T00:16:10.194Z,97888.84
2022-09-12T00:18:36.940Z,97887.66
2022-09-12T00:21:04.857Z,97884.94
2022-09-12T00:23:34.833Z,97889.94
2022-09-12T00:26:05.745Z,97890.72
2022-09-12T00:28:35.694Z,97882.56
2022-09-12T00:31:10.605Z,97884.09
2022-09-12T00:33:37.230Z,97879.03
2022-09-12T00:36:10.342Z,97882.13
2022-09-12T00:38:40.533Z,97874.41
2022-09-12T00:41:08.258Z,97877.09
2022-09-12T00:43:52.136Z,97879.03
2022-09-12T00:46:36.584Z,97878.25
2022-09-12T00:49:05.390Z,97865.78
2022-09-12T00:51:36.684Z,97876.63
2022-09-12T00:54:10.671Z,97870.41
2022-09-12T00:56:41.025Z,97868.88
2022-09-12T00:59:16.660Z,97867.31
2022-09-12T01:01:46.673Z,97868.41
2022-09-12T01:04:13.756Z,97868.78
2022-09-12T01:06:45.169Z,97864.50
2022-09-12T01:09:17.066Z,97871.13
2022-09-12T01:11:47.159Z,97860.28
2022-09-12T01:14:16.857Z,97858.72
2022-09-12T01:16:45.426Z,97854.00
2022-09-12T01:19:44.194Z,97856.00
2022-09-12T01:22:35.465Z,97856.38
2022-09-12T01:25:19.826Z,97857.19
2022-09-12T01:28:04.577Z,97857.88
2022-09-12T01:30:55.650Z,97850.94
2022-09-12T01:33:32.012Z,97854.44
2022-09-12T01:36:29.789Z,97846.25
2022-09-12T01:39:02.062Z,97842.34
2022-09-12T01:41:56.401Z,97838.44
2022-09-12T01:44:41.590Z,97841.50
2022-09-12T01:47:25.773Z,97841.09
2022-09-12T01:50:09.604Z,97842.16
2022-09-12T01:52:46.528Z,97834.78
2022-09-12T01:55:30.827Z,97837.88
2022-09-12T01:58:20.752Z,97836.69
2022-09-12T02:00:50.343Z,97840.91
2022-09-12T02:03:21.447Z,97838.59
2022-09-12T02:05:57.494Z,97833.97
2022-09-12T02:08:37.996Z,97837.06
2022-09-12T02:11:09.947Z,97841.28
2022-09-12T02:13:43.194Z,97837.38
2022-09-12T02:16:14.055Z,97833.88
2022-09-12T02:18:47.225Z,97836.56
2022-09-12T02:21:13.945Z,97833.50
2022-09-12T02:23:48.376Z,97832.69
2022-09-12T02:26:23.383Z,97834.25
2022-09-12T02:28:52.265Z,97836.91
2022-09-12T02:31:28.981Z,97838.03
2022-09-12T02:34:16.474Z,97830.34
2022-09-12T02:37:11.225Z,97824.53
2022-09-12T02:39:44.510Z,97827.28
2022-09-12T02:42:11.923Z,97833.38
2022-09-12T02:44:38.686Z,97823.31
2022-09-12T02:47:15.616Z,97814.03
2022-09-12T02:49:42.164Z,97813.25
2022-09-12T02:52:08.755Z,97819.78
2022-09-12T02:54:39.602Z,97822.16
2022-09-12T02:57:20.640Z,97818.75
2022-09-12T02:59:54.145Z,97817.94
2022-09-12T03:02:39.471Z,97824.06
2022-09-12T03:05:27.231Z,97820.16
2022-09-12T03:08:15.510Z,97820.16
2022-09-12T03:11:06.331Z,97827.13
2022-09-12T03:14:06.563Z,97824.00
2022-09-12T03:16:53.823Z,97825.56
2022-09-12T03:19:33.927Z,97832.44
2022-09-12T03:22:21.780Z,97824.31
2022-09-12T03:25:06.553Z,97820.38
2022-09-12T03:27:48.289Z,97817.31
2022-09-12T03:30:14.859Z,97818.03
2022-09-12T03:32:52.594Z,97820.03
2022-09-12T03:35:23.265Z,97823.41
2022-09-12T03:37:50.937Z,97817.22
2022-09-12T03:40:18.058Z,97814.88
2022-09-12T03:42:44.582Z,97816.44
2022-09-12T03:45:11.461Z,97814.50
2022-09-12T03:47:39.794Z,97818.09
2022-09-12T03:50:07.168Z,97821.63
2022-09-12T03:52:33.684Z,97815.88
2022-09-12T03:55:05.493Z,97817.41
2022-09-12T03:57:32.077Z,97814.03
2022-09-12T03:59:58.642Z,97812.22
2022-09-12T04:02:25.270Z,97814.19
2022-09-12T04:04:51.799Z,97808.81
2022-09-12T04:07:21.725Z,97808.44
2022-09-12T04:09:48.482Z,97809.25
2022-09-12T04:12:15.166Z,97806.66
2022-09-12T04:14:41.768Z,97817.53
2022-09-12T04:17:10.220Z,97815.97
2022-09-12T04:19:36.947Z,97813.66
2022-09-12T04:22:03.864Z,97815.97
2022-09-12T04:24:30.582Z,97806.72
2022-09-12T04:26:57.442Z,97808.25
2022-09-12T04:29:24.235Z,97816.38
2022-09-12T04:32:01.305Z,97805.16
2022-09-12T04:34:32.544Z,97806.34
2022-09-12T04:36:59.100Z,97812.16
2022-09-12T04:39:27.441Z,97809.88
2022-09-12T04:41:54.378Z,97805.25
2022-09-12T04:44:20.895Z,97811.47
2022-09-12T04:46:49.523Z,97801.81
2022-09-12T04:49:19.525Z,97797.53
2022-09-12T04:51:46.588Z,97793.28
2022-09-12T04:54:17.781Z,97796.78
2022-09-12T04:56:47.297Z,97802.19
2022-09-12T04:59:15.773Z,97794.88
2022-09-12T05:01:48.956Z,97793.00
2022-09-12T05:04:15.822Z,97801.50
2022-09-12T05:06:43.456Z,97801.16
2022-09-12T05:09:16.357Z,97802.75
2022-09-12T05:14:33.242Z,97801.41
2022-09-12T05:17:01.834Z,97811.16
2022-09-12T05:19:30.293Z,97806.56
2022-09-12T05:22:00.821Z,97802.72
2022-09-12T05:24:27.435Z,97808.53
2022-09-12T05:26:54.183Z,97811.97
2022-09-12T05:29:20.815Z,97816.13
2022-09-12T05:31:50.175Z,97821.78
2022-09-12T05:34:19.945Z,97822.31
2022-09-12T05:36:46.748Z,97821.22
2022-09-12T05:39:13.607Z,97821.75
2022-09-12T05:41:43.677Z,97825.81
2022-09-12T05:44:14.444Z,97826.50
2022-09-12T05:46:50.470Z,97818.72
2022-09-12T05:49:17.168Z,97821.84
2022-09-12T05:51:45.510Z,97832.91
2022-09-12T05:54:14.335Z,97825.06
2022-09-12T05:56:45.531Z,97836.53
2022-09-12T05:59:20.597Z,97832.31
2022-09-12T06:01:49.237Z,97831.13
2022-09-12T06:04:16.363Z,97835.72
2022-09-12T06:06:48.848Z,97839.13
2022-09-12T06:09:18.408Z,97841.03
2022-09-12T06:11:46.006Z,97855.16
2022-09-12T06:14:15.018Z,97844.16
2022-09-12T06:16:50.114Z,97848.94
2022-09-12T06:19:18.918Z,97855.56
2022-09-12T06:21:49.601Z,97851.22
2022-09-12T06:24:17.647Z,97846.09
2022-09-12T06:26:44.423Z,97845.19
2022-09-12T06:29:14.069Z,97852.47
2022-09-12T06:31:44.270Z,97851.38
2022-09-12T06:34:14.311Z,97845.53
2022-09-12T06:36:43.879Z,97845.94
2022-09-12T06:39:13.703Z,97835.38
2022-09-12T06:41:43.953Z,97843.25
2022-09-12T06:44:16.758Z,97841.03
2022-09-12T06:46:45.526Z,97835.91
2022-09-12T06:49:12.315Z,97832.28
2022-09-12T06:51:41.395Z,97832.91
2022-09-12T06:54:07.921Z,97830.88
2022-09-12T06:56:34.383Z,97832.69
2022-09-12T06:59:01.067Z,97834.91
2022-09-12T07:01:31.753Z,97836.22
2022-09-12T07:04:00.990Z,97827.72
2022-09-12T07:06:35.475Z,97817.25
2022-09-12T07:09:06.528Z,97819.44
2022-09-12T07:11:40.540Z,97817.66
2022-09-12T07:14:12.068Z,97802.09
2022-09-12T07:16:38.752Z,97815.75
2022-09-12T07:19:07.670Z,97817.63
2022-09-12T07:21:39.000Z,97817.63
2022-09-12T07:24:06.337Z,97824.66
2022-09-12T07:26:37.402Z,97824.47
2022-09-12T07:29:32.363Z,97813.22
2022-09-12T07:31:59.741Z,97822.19
2022-09-12T07:34:29.690Z,97832.69
2022-09-12T07:36:56.566Z,97806.59
2022-09-12T07:39:24.409Z,97813.53
2022-09-12T07:41:51.404Z,97809.81
2022-09-12T07:44:17.843Z,97808.63
2022-09-12T07:46:46.600Z,97820.13
2022-09-12T07:49:13.469Z,97812.03
2022-09-12T07:51:40.523Z,97813.53
2022-09-12T07:54:16.882Z,97816.53
2022-09-12T07:56:43.550Z,97817.63
2022-09-12T07:59:10.264Z,97815.03
2022-09-12T08:01:38.331Z,97823.78
2022-09-12T08:04:05.260Z,97823.66
2022-09-12T08:06:36.167Z,97815.16
2022-09-12T08:09:03.686Z,97810.19
2022-09-12T08:11:30.634Z,97817.19
2022-09-12T08:13:58.288Z,97822.41
2022-09-12T08:16:27.719Z,97823.47
2022-09-12T08:21:22.968Z,97814.97
2022-09-12T08:24:02.890Z,97815.16
2022-09-12T08:26:30.629Z,97816.38
2022-09-12T08:28:57.364Z,97823.69
2022-09-12T08:31:28.668Z,97823.09
2022-09-12T08:33:58.573Z,97827.91
2022-09-12T08:36:27.736Z,97835.00
2022-09-12T08:39:00.492Z,97829.91
2022-09-12T08:41:44.404Z,97818.66
2022-09-12T08:44:29.324Z,97818.91
2022-09-12T08:47:14.739Z,97827.69
2022-09-12T08:50:12.678Z,97822.00
2022-09-12T08:53:02.886Z,97818.50
2022-09-12T08:56:04.551Z,97819.16
2022-09-12T08:58:39.542Z,97817.75
2022-09-12T09:01:17.864Z,97815.69
2022-09-12T09:03:48.449Z,97808.38
2022-09-12T09:06:30.967Z,97820.69
2022-09-12T09:09:04.987Z,97823.81
2022-09-12T09:11:52.133Z,97823.22
2022-09-12T09:14:49.040Z,97818.16
2022-09-12T09:17:30.450Z,97821.13
2022-09-12T09:20:28.780Z,97817.75
2022-09-12T09:23:35.294Z,97821.69
2022-09-12T09:26:27.358Z,97817.72
2022-09-12T09:28:58.030Z,97817.38
2022-09-12T09:31:26.321Z,97814.91
2022-09-12T09:33:57.564Z,97814.59
2022-09-12T09:36:36.358Z,97810.66
2022-09-12T09:39:06.131Z,97810.03
2022-09-12T09:42:00.532Z,97800.75
2022-09-12T09:44:29.831Z,97802.91
2022-09-12T09:46:59.036Z,97808.41
2022-09-12T09:49:30.676Z,97807.28
2022-09-12T09:52:00.970Z,97804.97
2022-09-12T09:54:41.324Z,97800.25
2022-09-12T09:57:37.919Z,97813.59
2022-09-12T10:00:28.464Z,97806.19
2022-09-12T10:03:13.376Z,97801.97
2022-09-12T10:05:52.607Z,97804.81
2022-09-12T10:08:30.278Z,97798.84
2022-09-12T10:11:00.672Z,97799.72
2022-09-12T10:13:43.219Z,97796.09
2022-09-12T10:16:21.209Z,97778.06
2022-09-12T10:18:49.370Z,97778.78
2022-09-12T10:21:18.932Z,97783.72
2022-09-12T10:23:48.067Z,97780.94
2022-09-12T10:26:19.357Z,97776.69
2022-09-12T10:28:53.826Z,97779.00
2022-09-12T10:31:33.150Z,97776.88
2022-09-12T10:34:02.724Z,97778.44
2022-09-12T10:36:38.567Z,97781.50
2022-09-12T10:39:06.962Z,97774.59
2022-09-12T10:41:39.154Z,97773.09
2022-09-12T10:44:10.435Z,97770.94
2022-09-12T10:46:39.275Z,97769.69
2022-09-12T10:49:27.217Z,97766.66
2022-09-12T10:51:55.020Z,97779.97
2022-09-12T10:54:25.206Z,97774.41
2022-09-12T10:56:58.936Z,97759.00
2022-09-12T10:59:51.653Z,97748.72
2022-09-12T11:02:30.506Z,97742.59
2022-09-12T11:05:18.356Z,97749.03
2022-09-12T11:08:09.144Z,97750.69
2022-09-12T11:10:59.892Z,97752.81
2022-09-12T11:13:59.395Z,97743.75
2022-09-12T11:16:49.071Z,97736.75
2022-09-12T11:19:29.043Z,97740.50
2022-09-12T11:22:31.950Z,97737.06
2022-09-12T11:25:11.053Z,97739.56
2022-09-12T11:28:04.527Z,97739.28
2022-09-12T11:30:45.722Z,97733.31
2022-09-12T11:33:32.827Z,97736.50
2022-09-12T11:36:05.243Z,97731.88
2022-09-12T11:38:50.846Z,97720.13
2022-09-12T11:41:29.287Z,97716.88
2022-09-12T11:43:58.991Z,97713.00
2022-09-12T11:46:34.509Z,97717.94
2022-09-12T11:49:11.852Z,97714.19
2022-09-12T11:51:56.550Z,97718.50
2022-09-12T11:54:28.852Z,97714.03
2022-09-12T11:57:31.781Z,97711.31
2022-09-12T12:00:05.464Z,97717.94
2022-09-12T12:02:49.871Z,97711.78
2022-09-12T12:05:26.385Z,97714.25
2022-09-12T12:07:58.797Z,97711.69
2022-09-12T12:10:44.132Z,97709.31
2022-09-12T12:13:24.495Z,97705.22
2022-09-12T12:15:59.138Z,97693.50
2022-09-12T12:18:28.927Z,97690.97
2022-09-12T12:20:56.897Z,97694.34
2022-09-12T12:23:30.477Z,97692.44
2022-09-12T12:26:00.011Z,97683.91
2022-09-12T12:28:50.741Z,97686.38
2022-09-12T12:31:18.317Z,97683.75
2022-09-12T12:33:45.042Z,97681.00
2022-09-12T12:36:35.307Z,97681.31
2022-09-12T12:39:33.638Z,97667.88
2022-09-12T12:42:01.166Z,97676.00
2022-09-12T12:44:47.255Z,97666.53
2022-09-12T12:47:27.525Z,97667.28
2022-09-12T12:50:20.707Z,97662.50
2022-09-12T12:52:57.869Z,97663.91
2022-09-12T12:55:27.112Z,97650.19
2022-09-12T12:57:56.862Z,97652.75
2022-09-12T13:00:26.724Z,97643.75
2022-09-12T13:03:08.236Z,97649.13
2022-09-12T13:05:47.562Z,97641.78
2022-09-12T13:08:16.714Z,97642.53
2022-09-12T13:10:59.728Z,97642.31
2022-09-12T13:13:35.992Z,97642.56
2022-09-12T13:16:04.577Z,97644.66
2022-09-12T13:18:44.746Z,97645.22
2022-09-12T13:21:19.462Z,97642.44
2022-09-12T13:24:02.124Z,97636.25
2022-09-12T13:26:39.577Z,97636.09
2022-09-12T13:29:15.092Z,97630.41
2022-09-12T13:31:46.739Z,97619.81
2022-09-12T13:34:22.257Z,97622.25
2022-09-12T13:36:58.053Z,97618.22
2022-09-12T13:39:29.934Z,97614.94
2022-09-12T13:42:08.303Z,97612.31
2022-09-12T13:44:57.885Z,97611.38
2022-09-12T13:47:38.019Z,97605.31
2022-09-12T13:50:07.506Z,97616.16
2022-09-12T13:52:37.909Z,97614.94
2022-09-12T13:55:27.471Z,97600.16
2022-09-12T13:58:06.258Z,97597.22
2022-09-12T14:00:36.822Z,97594.97
2022-09-12T14:03:43.258Z,97604.06
2022-09-12T14:06:12.297Z,97596.59
2022-09-12T14:08:41.637Z,97595.31
2022-09-12T14:11:11.048Z,97587.91
2022-09-12T14:13:39.412Z,97584.13
2022-09-12T14:16:09.890Z,97589.47
2022-09-12T14:18:38.713Z,97590.25
2022-09-12T14:21:31.041Z,97584.00
2022-09-12T14:23:59.459Z,97579.44
2022-09-12T14:26:27.771Z,97583.50
2022-09-12T14:28:58.375Z,97579.75
2022-09-12T14:31:30.391Z,97573.44
2022-09-12T14:34:12.278Z,97569.44
2022-09-12T14:36:44.694Z,97574.00
2022-09-12T14:39:32.173Z,97568.88
2022-09-12T14:42:06.680Z,97572.22
2022-09-12T14:44:40.389Z,97569.41
2022-09-12T14:47:20.568Z,97567.75
2022-09-12T14:49:53.385Z,97567.44
2022-09-12T14:52:27.737Z,97560.31
2022-09-12T14:55:02.778Z,97560.56
2022-09-12T14:57:39.695Z,97560.56
2022-09-12T15:00:16.149Z,97559.50
2022-09-12T15:02:43.559Z,97551.34
2022-09-12T15:05:12.798Z,97547.44
2022-09-12T15:07:43.507Z,97545.97
2022-09-12T15:10:26.978Z,97546.94
2022-09-12T15:13:08.588Z,97542.56
2022-09-12T15:15:39.797Z,97543.50
2022-09-12T15:18:08.365Z,97540.47
2022-09-12T15:20:39.994Z,97549.25
2022-09-12T15:23:12.110Z,97546.81
2022-09-12T15:25:38.839Z,97547.78
2022-09-12T15:28:25.748Z,97546.88
2022-09-12T15:30:54.994Z,97546.94
2022-09-12T15:33:24.167Z,97544.00
2022-09-12T15:35:58.676Z,97548.06
2022-09-12T15:38:26.667Z,97543.28
2022-09-12T15:40:54.048Z,97542.25
2022-09-12T15:43:23.583Z,97539.72
2022-09-12T15:45:51.746Z,97540.66
2022-09-12T15:48:19.399Z,97542.94
2022-09-12T15:50:47.735Z,97542.50
2022-09-12T15:53:16.493Z,97536.44
2022-09-12T15:55:43.691Z,97529.31
2022-09-12T15:58:10.526Z,97525.69
2022-09-12T16:00:37.164Z,97530.44
2022-09-12T16:03:04.085Z,97533.38
2022-09-12T16:05:32.373Z,97536.16
2022-09-12T16:07:58.911Z,97530.72
2022-09-12T16:10:29.667Z,97529.06
2022-09-12T16:12:58.161Z,97530.94
2022-09-12T16:15:25.769Z,97510.38
2022-09-12T16:17:52.806Z,97511.34
2022-09-12T16:20:20.693Z,97515.31
2022-09-12T16:22:47.453Z,97512.38
2022-09-12T16:25:13.994Z,97509.03
2022-09-12T16:27:43.352Z,97512.22
2022-09-12T16:30:10.503Z,97501.75
2022-09-12T16:32:37.124Z,97516.66
2022-09-12T16:35:12.522Z,97505.16
2022-09-12T16:37:39.177Z,97506.97
2022-09-12T16:40:06.688Z,97504.00
2022-09-12T16:42:35.153Z,97498.78
2022-09-12T16:45:03.844Z,97502.16
2022-09-12T16:47:32.269Z,97501.00
2022-09-12T16:49:59.687Z,97498.63
2022-09-12T16:52:26.175Z,97492.41
2022-09-12T16:54:52.846Z,97494.78
2022-09-12T16:57:19.704Z,97497.66
2022-09-12T16:59:46.267Z,97491.09
2022-09-12T17:02:15.670Z,97495.03
2022-09-12T17:04:42.373Z,97494.34
2022-09-12T17:07:09.121Z,97501.94
2022-09-12T17:09:37.468Z,97489.72
2022-09-12T17:12:06.559Z,97485.19
2022-09-12T17:14:33.122Z,97491.91
2022-09-12T17:16:59.676Z,97484.44
2022-09-12T17:19:29.947Z,97483.34
2022-09-12T17:21:57.672Z,97486.47
2022-09-12T17:24:24.533Z,97485.31
2022-09-12T17:26:54.326Z,97478.44
2022-09-12T17:29:21.022Z,97488.28
2022-09-12T17:31:51.985Z,97482.34
2022-09-12T17:34:25.343Z,97482.34
2022-09-12T17:36:53.984Z,97488.66
2022-09-12T17:39:20.547Z,97487.38
2022-09-12T17:41:47.442Z,97485.69
2022-09-12T17:44:15.188Z,97482.31
2022-09-12T17:46:42.138Z,97483.97
2022-09-12T17:49:14.651Z,97483.63
2022-09-12T17:51:42.075Z,97495.22
2022-09-12T17:54:20.399Z,97492.09
2022-09-12T17:56:49.801Z,97491.44
2022-09-12T17:59:21.607Z,97496.59
2022-09-12T18:02:06.626Z,97502.94
2022-09-12T18:04:38.924Z,97499.16
2022-09-12T18:07:06.015Z,97501.53
2022-09-12T18:09:34.544Z,97509.72
2022-09-12T18:12:01.170Z,97512.25
2022-09-12T18:14:28.283Z,97515.22
2022-09-12T18:16:59.308Z,97512.28
2022-09-12T18:19:27.322Z,97511.00
2022-09-12T18:21:55.088Z,97516.75
2022-09-12T18:24:22.261Z,97526.44
2022-09-12T18:26:49.119Z,97518.44
2022-09-12T18:29:20.070Z,97522.63
2022-09-12T18:31:48.623Z,97524.41
2022-09-12T18:34:18.296Z,97526.63
2022-09-12T18:36:47.780Z,97526.88
2022-09-12T18:39:15.055Z,97530.59
2022-09-12T18:41:42.239Z,97523.34
2022-09-12T18:44:11.709Z,97519.28
2022-09-12T18:46:40.445Z,97525.88
2022-09-12T18:49:07.814Z,97523.34
2022-09-12T18:51:37.238Z,97524.00
2022-09-12T18:54:06.629Z,97531.22
2022-09-12T18:56:36.003Z,97530.25
2022-09-12T18:59:05.333Z,97533.19
2022-09-12T19:01:36.371Z,97529.88
2022-09-12T19:04:05.898Z,97533.28
2022-09-12T19:06:35.314Z,97536.66
2022-09-12T19:09:07.388Z,97533.34
2022-09-12T19:11:36.176Z,97532.69
2022-09-12T19:14:02.877Z,97530.03
2022-09-12T19:16:29.757Z,97532.00
2022-09-12T19:18:57.089Z,97534.59
2022-09-12T19:21:31.556Z,97533.56
2022-09-12T19:24:00.423Z,97530.59
2022-09-12T19:26:27.020Z,97543.25
2022-09-12T19:28:56.251Z,97532.94
2022-09-12T19:31:23.556Z,97539.91
2022-09-12T19:33:52.203Z,97534.69
2022-09-12T19:36:44.515Z,97539.59
2022-09-12T19:39:08.506Z,97541.28
2022-09-12T19:41:36.047Z,97532.81
2022-09-12T19:44:03.543Z,97529.94
2022-09-12T19:46:30.100Z,97528.56
2022-09-12T19:48:58.544Z,97528.31
2022-09-12T19:51:25.303Z,97533.59
2022-09-12T19:53:52.506Z,97528.25
2022-09-12T19:56:20.046Z,97540.16
2022-09-12T19:58:52.045Z,97537.53
2022-09-12T20:01:31.684Z,97546.59
2022-09-12T20:03:58.743Z,97545.91
2022-09-12T20:06:26.562Z,97541.72
2022-09-12T20:08:53.760Z,97545.38
2022-09-12T20:11:22.083Z,97540.75
2022-09-12T20:13:48.954Z,97538.50
2022-09-12T20:16:22.655Z,97533.91
2022-09-12T20:18:57.296Z,97531.16
2022-09-12T20:21:31.201Z,97524.25
2022-09-12T20:24:06.631Z,97521.56
2022-09-12T20:26:35.117Z,97530.72
2022-09-12T20:29:02.034Z,97525.31
2022-09-12T20:31:28.733Z,97517.19
2022-09-12T20:33:55.763Z,97530.44
2022-09-12T20:36:22.910Z,97524.97
2022-09-12T20:38:54.452Z,97520.28
2022-09-12T20:41:21.454Z,97534.28
2022-09-12T20:43:52.377Z,97530.44
2022-09-12T20:46:22.069Z,97516.41
2022-09-12T20:48:49.962Z,97528.19
2022-09-12T20:51:16.833Z,97524.28
2022-09-12T20:53:43.387Z,97522.81
2022-09-12T20:56:10.077Z,97517.41
2022-09-12T20:58:39.391Z,97508.09
2022-09-12T21:01:11.440Z,97502.28
2022-09-12T21:03:40.936Z,97507.06
2022-09-12T21:06:09.292Z,97509.69
2022-09-12T21:08:37.111Z,97515.09
2022-09-12T21:11:04.505Z,97514.34
2022-09-12T21:13:31.761Z,97510.06
2022-09-12T21:16:06.298Z,97505.09
2022-09-12T21:18:33.985Z,97511.34
2022-09-12T21:21:00.973Z,97512.25
2022-09-12T21:23:34.009Z,97515.22
2022-09-12T21:26:01.428Z,97516.13
2022-09-12T21:28:28.305Z,97522.84
2022-09-12T21:30:54.981Z,97516.69
2022-09-12T21:33:22.377Z,97508.13
2022-09-12T21:35:49.805Z,97507.41
2022-09-12T21:38:17.493Z,97509.81
2022-09-12T21:40:44.331Z,97508.25
2022-09-12T21:43:13.017Z,97507.91
2022-09-12T21:45:42.339Z,97511.06
2022-09-12T21:48:09.562Z,97523.56
2022-09-12T21:50:36.063Z,97524.75
2022-09-12T21:53:04.401Z,97530.22
2022-09-12T21:55:31.191Z,97526.00
2022-09-12T21:57:57.771Z,97514.81
2022-09-12T22:00:29.433Z,97519.13
2022-09-12T22:02:56.324Z,97515.66
2022-09-12T22:05:24.681Z,97512.19
2022-09-12T22:07:57.861Z,97504.84
2022-09-12T22:10:25.089Z,97508.75
2022-09-12T22:12:51.763Z,97505.66
2022-09-12T22:15:41.426Z,97513.50
2022-09-12T22:18:08.066Z,97508.06
2022-09-12T22:20:43.081Z,97503.44
2022-09-12T22:23:31.038Z,97501.16
2022-09-12T22:26:03.306Z,97498.91
2022-09-12T22:28:32.129Z,97500.50
2022-09-12T22:30:59.713Z,97492.75
2022-09-12T22:33:28.431Z,97499.41
2022-09-12T22:35:54.951Z,97497.47
2022-09-12T22:38:22.284Z,97494.38
2022-09-12T22:40:50.495Z,97494.28
2022-09-12T22:43:17.222Z,97495.41
2022-09-12T22:45:43.724Z,97505.50
2022-09-12T22:48:10.428Z,97502.84
2022-09-12T22:50:36.918Z,97494.59
2022-09-12T22:53:03.396Z,97491.81
2022-09-12T22:55:34.523Z,97502.59
2022-09-12T22:58:01.398Z,97501.06
2022-09-12T23:00:28.086Z,97494.13
2022-09-12T23:02:56.644Z,97497.16
2022-09-12T23:05:23.373Z,97494.75
2022-09-12T23:07:51.046Z,97489.19
2022-09-12T23:10:19.431Z,97498.06
2022-09-12T23:12:46.106Z,97489.53
2022-09-12T23:15:12.606Z,97496.13
2022-09-12T23:17:39.346Z,97487.13
2022-09-12T23:20:08.412Z,97480.53
2022-09-12T23:22:37.269Z,97478.22
2022-09-12T23:25:06.375Z,97472.00
2022-09-12T23:27:32.887Z,97468.50
2022-09-12T23:29:59.378Z,97463.53
2022-09-12T23:32:38.621Z,97467.06
2022-09-12T23:35:06.060Z,97466.34
2022-09-12T23:37:32.525Z,97457.84
2022-09-12T23:39:59.192Z,97461.41
2022-09-12T23:42:25.723Z,97457.88
2022-09-12T23:44:52.201Z,97456.84
2022-09-12T23:47:23.185Z,97458.50
2022-09-12T23:49:49.663Z,97458.22
2022-09-12T23:52:16.197Z,97459.44
2022-09-12T23:54:44.399Z,97461.81
2022-09-12T23:57:11.109Z,97467.59
2022-09-12T23:59:37.883Z,97451.25
